To NAV CANADA Home Page Login to a new session Search on AWWS site Disclaimer Vers la page française équivalente Tips FAQ What's new on the site To the Forecasts and Observations / NOTAM section To "File a Flight Plan" website Publications and other links Update of the User's profile FIC Telephone Numbers My Weather Data Folder Route Weather Data Regional Weather Data Local Weather Data To the Forecasts and Observations / NOTAM section
Request Generated 05/17/2021 at 23:09:16 UTC . Weather information available at that time is displayed.


Go to a specific product

Save this request

NOTAM

NOTAM


SIGMET
To the Product Selector

SIGMETS GFACN32

WSCN32 CWEG 172140
SIGMET A3 VALID 172140/172355 CWEG-
CZWG WINNIPEG FIR CNCL SIGMET A2 171955/172355
RMK GFACN32
END/WSCN23/CWAO

WSCN32 CWEG 171756
SIGMET B5 VALID 171755/172010 CWEG-
CZEG EDMONTON FIR CNCL SIGMET B4 171610/172010
RMK GFACN32/CZWG WINNIPEG FIR SIGMET C5
END/WSCN22/CWAO

WSCN32 CWEG 171756
SIGMET C5 VALID 171755/172010 CWEG-
CZWG WINNIPEG FIR CNCL SIGMET C4 171610/172010
RMK GFACN32/CZEG EDMONTON FIR SIGMET B5
END/WSCN23/CWAO



AIRMET
To the Product Selector

AIRMETS GFACN32

GFACN32 - No AIRMET bulletins in effect



PIREP
To the Product Selector

FIR_WINNIPEG (WG)

WG - PIREP not available



METAR/TAF
To the Product Selector

REGINA INTL/SK    

METAR CYQR 172300Z 19019G27KT 15SM BKN270 30/02 A2969 RMK CI7 SLP058 DENSITY ALT 4300FT=
METAR CYQR 172200Z 19021G32KT 15SM BKN270 30/03 A2970 RMK CI7 SLP060 DENSITY ALT 4400FT=
METAR CYQR 172100Z 21019G30KT 15SM BKN270 30/04 A2972 RMK CI7 SLP067 DENSITY ALT 4300FT=

TAF CYQR 171744Z 1718/1818 20020G32KT P6SM FEW100 BKN280
FM180000 18018G28KT P6SM SCT280
FM180600 18015KT P6SM SKC
BECMG 1815/1817 18020G30KT
RMK NXT FCST BY 180000Z=

MOOSE JAW/AIR VICE MARSHAL C.M. MCEWEN/SK    

METAR CYMJ 172100Z 19020G29KT 15SM BKN300 30/02 A2969 RMK CI6 LAST OBS / NXT 181000 UTC SLP048=
METAR CYMJ 172000Z CCA 20013G26KT 15SM BKN300 30/01 A2971 RMK CI6 SLP054=
METAR CYMJ 172000Z 20013KT 15SM BKN300 30/01 A2971 RMK CI6 SLP054=

TAF AMD CYMJ 172141Z 1718/1806 FCST CNCLD DUE END OF FLYING PROGRAM
RMK NXT FCST WILL BE ISSUED AT 181115Z=


RADAR PCPN RATE
To the Product Selector
Pacific Canada      Western Canada     

SATELLITE VISIBLE
To the Product Selector
West Canada      

SATELLITE INFRARED
To the Product Selector
West Canada     

GRAPHICAL FA CLOUDS & WEATHER FORECASTS
To the Product Selector
Graphical FA gfacn32      

GRAPHICAL FA ICING, TURBULENCE & FREEZING LEVEL FORECASTS
To the Product Selector
Graphical FA gfacn32      

FDTEXT Low Level FD. Temperatures are not forecast for the 3,000-foot level.
To the Product Selector
STN YQR - REGINA. SASK for use 3000 6000 9000 12000 18000
FDCN01 CWAO FCST BASED ON 171200 DATA VALID 171800 17-21 2025+14 2027+05 2317+00 2520-12
FDCN02 CWAO FCST BASED ON 171200 DATA VALID 180000 21-06 2023+17 2124+08 2425+02 2426-12
FDCN03 CWAO FCST BASED ON 171200 DATA VALID 181200 06-17 2221+16 2218+07 2028+03 2025-12



Your time UTC time
Weather data provided by Environment Canada and NAV CANADA